createdAt,value
2018-07-20T00:00:01.066Z,1009.57
2018-07-20T00:00:11.064Z,1009.58
2018-07-20T00:00:21.066Z,1009.55
2018-07-20T00:00:31.070Z,1009.54
2018-07-20T00:00:41.063Z,1009.58
2018-07-20T00:00:51.060Z,1009.57
2018-07-20T00:01:01.052Z,1009.58
2018-07-20T00:01:11.053Z,1009.59
2018-07-20T00:01:21.056Z,1009.57
2018-07-20T00:01:31.051Z,1009.57
2018-07-20T00:01:41.049Z,1009.55
2018-07-20T00:01:51.049Z,1009.55
2018-07-20T00:02:01.042Z,1009.55
2018-07-20T00:02:11.042Z,1009.55
2018-07-20T00:02:21.039Z,1009.58
2018-07-20T00:02:31.038Z,1009.54
2018-07-20T00:02:41.035Z,1009.55
2018-07-20T00:02:51.032Z,1009.55
2018-07-20T00:03:01.034Z,1009.55
2018-07-20T00:03:11.030Z,1009.55
2018-07-20T00:03:21.051Z,1009.51
2018-07-20T00:03:31.024Z,1009.55
2018-07-20T00:03:41.028Z,1009.52
2018-07-20T00:03:51.021Z,1009.57
2018-07-20T00:04:01.030Z,1009.57
2018-07-20T00:04:11.020Z,1009.54
2018-07-20T00:04:21.013Z,1009.56
2018-07-20T00:04:31.014Z,1009.56
2018-07-20T00:04:41.103Z,1009.57
2018-07-20T00:04:51.018Z,1009.55
2018-07-20T00:05:01.014Z,1009.55
2018-07-20T00:05:11.010Z,1009.55
2018-07-20T00:05:21.009Z,1009.56
2018-07-20T00:05:31.014Z,1009.61
2018-07-20T00:05:41.008Z,1009.59
2018-07-20T00:05:51.004Z,1009.57
2018-07-20T00:06:01.002Z,1009.58
2018-07-20T00:06:11.002Z,1009.55
2018-07-20T00:06:20.996Z,1009.54
2018-07-20T00:06:31.005Z,1009.60
2018-07-20T00:06:41.002Z,1009.56
2018-07-20T00:06:50.990Z,1009.62
2018-07-20T00:07:00.990Z,1009.63
2018-07-20T00:07:10.991Z,1009.63
2018-07-20T00:07:20.989Z,1009.59
2018-07-20T00:07:30.986Z,1009.61
2018-07-20T00:07:40.987Z,1009.59
2018-07-20T00:07:50.990Z,1009.57
2018-07-20T00:08:01.021Z,1009.59
2018-07-20T00:08:11.028Z,1009.59
2018-07-20T00:08:21.069Z,1009.59
2018-07-20T00:08:30.983Z,1009.59
2018-07-20T00:08:40.986Z,1009.54
2018-07-20T00:08:50.983Z,1009.56
2018-07-20T00:09:00.980Z,1009.57
2018-07-20T00:09:10.985Z,1009.57
2018-07-20T00:09:20.978Z,1009.56
2018-07-20T00:09:30.975Z,1009.59
2018-07-20T00:09:40.976Z,1009.61
2018-07-20T00:09:50.981Z,1009.57
2018-07-20T00:10:00.979Z,1009.58
2018-07-20T00:10:10.976Z,1009.60
2018-07-20T00:10:20.973Z,1009.60
2018-07-20T00:10:30.973Z,1009.62
2018-07-20T00:10:40.976Z,1009.60
2018-07-20T00:10:50.975Z,1009.64
2018-07-20T00:11:00.972Z,1009.61
2018-07-20T00:11:10.994Z,1009.63
2018-07-20T00:11:20.971Z,1009.62
2018-07-20T00:11:30.972Z,1009.63
2018-07-20T00:11:40.971Z,1009.62
2018-07-20T00:11:50.969Z,1009.64
2018-07-20T00:12:00.971Z,1009.61
2018-07-20T00:12:10.973Z,1009.61
2018-07-20T00:12:20.969Z,1009.60
2018-07-20T00:12:30.965Z,1009.61
2018-07-20T00:12:40.963Z,1009.59
2018-07-20T00:12:50.974Z,1009.57
2018-07-20T00:13:00.960Z,1009.59
2018-07-20T00:13:10.960Z,1009.63
2018-07-20T00:13:20.964Z,1009.61
2018-07-20T00:13:30.959Z,1009.60
2018-07-20T00:13:40.961Z,1009.58
2018-07-20T00:13:50.959Z,1009.59
2018-07-20T00:14:00.964Z,1009.61
2018-07-20T00:14:10.956Z,1009.59
2018-07-20T00:14:20.953Z,1009.55
2018-07-20T00:14:30.955Z,1009.59
2018-07-20T00:14:40.953Z,1009.62
2018-07-20T00:14:50.966Z,1009.57
2018-07-20T00:15:00.951Z,1009.59
2018-07-20T00:15:10.946Z,1009.58
2018-07-20T00:15:20.952Z,1009.54
2018-07-20T00:15:30.946Z,1009.57
2018-07-20T00:15:40.942Z,1009.59
2018-07-20T00:15:50.943Z,1009.58
2018-07-20T00:16:00.943Z,1009.57
2018-07-20T00:16:10.971Z,1009.58
2018-07-20T00:16:20.949Z,1009.57
2018-07-20T00:16:30.943Z,1009.57
2018-07-20T00:16:41.015Z,1009.56
2018-07-20T00:16:51.010Z,1009.56
2018-07-20T00:17:00.945Z,1009.57
2018-07-20T00:17:10.937Z,1009.55
2018-07-20T00:17:20.943Z,1009.58
2018-07-20T00:17:30.949Z,1009.55
2018-07-20T00:17:40.934Z,1009.55
2018-07-20T00:17:50.938Z,1009.55
2018-07-20T00:18:00.940Z,1009.54
2018-07-20T00:18:10.940Z,1009.56
2018-07-20T00:18:20.936Z,1009.52
2018-07-20T00:18:30.945Z,1009.53
2018-07-20T00:18:40.937Z,1009.52
2018-07-20T00:18:50.930Z,1009.54
2018-07-20T00:19:00.934Z,1009.56
2018-07-20T00:19:10.935Z,1009.56
2018-07-20T00:19:20.929Z,1009.56
2018-07-20T00:19:30.928Z,1009.56
2018-07-20T00:19:40.935Z,1009.54
2018-07-20T00:19:50.933Z,1009.55
2018-07-20T00:20:00.931Z,1009.55
2018-07-20T00:20:10.931Z,1009.57
2018-07-20T00:20:20.930Z,1009.56
2018-07-20T00:20:30.927Z,1009.60
2018-07-20T00:20:40.962Z,1009.60
2018-07-20T00:20:50.927Z,1009.53
2018-07-20T00:21:00.928Z,1009.59
2018-07-20T00:21:10.923Z,1009.57
2018-07-20T00:21:20.932Z,1009.55
2018-07-20T00:21:30.926Z,1009.55
2018-07-20T00:21:40.924Z,1009.56
2018-07-20T00:21:50.928Z,1009.58
2018-07-20T00:22:00.928Z,1009.58
2018-07-20T00:22:10.979Z,1009.56
2018-07-20T00:22:20.920Z,1009.58
2018-07-20T00:22:30.931Z,1009.54
2018-07-20T00:22:40.917Z,1009.58
2018-07-20T00:22:50.921Z,1009.57
2018-07-20T00:23:00.921Z,1009.58
2018-07-20T00:23:10.921Z,1009.55
2018-07-20T00:23:20.919Z,1009.59
2018-07-20T00:23:30.920Z,1009.58
2018-07-20T00:23:40.913Z,1009.56
2018-07-20T00:23:50.916Z,1009.53
2018-07-20T00:24:00.915Z,1009.55
2018-07-20T00:24:10.914Z,1009.60
2018-07-20T00:24:20.919Z,1009.56
2018-07-20T00:24:30.921Z,1009.54
2018-07-20T00:24:40.923Z,1009.56
2018-07-20T00:24:50.918Z,1009.59
2018-07-20T00:25:00.912Z,1009.55
2018-07-20T00:25:10.914Z,1009.57
2018-07-20T00:25:20.916Z,1009.52
2018-07-20T00:25:30.913Z,1009.54
2018-07-20T00:25:40.909Z,1009.55
2018-07-20T00:25:50.915Z,1009.53
2018-07-20T00:26:00.913Z,1009.56
2018-07-20T00:26:10.912Z,1009.53
2018-07-20T00:26:20.912Z,1009.53
2018-07-20T00:26:30.912Z,1009.51
2018-07-20T00:26:40.911Z,1009.52
2018-07-20T00:26:50.912Z,1009.49
2018-07-20T00:27:00.918Z,1009.57
2018-07-20T00:27:10.910Z,1009.53
2018-07-20T00:27:20.914Z,1009.53
2018-07-20T00:27:30.907Z,1009.53
2018-07-20T00:27:40.907Z,1009.52
2018-07-20T00:27:50.903Z,1009.53
2018-07-20T00:28:00.904Z,1009.52
2018-07-20T00:28:10.904Z,1009.53
2018-07-20T00:28:20.904Z,1009.53
2018-07-20T00:28:30.903Z,1009.53
2018-07-20T00:28:40.907Z,1009.53
2018-07-20T00:28:50.901Z,1009.52
2018-07-20T00:29:00.899Z,1009.53
2018-07-20T00:29:10.898Z,1009.51
2018-07-20T00:29:20.897Z,1009.50
2018-07-20T00:29:30.907Z,1009.49
2018-07-20T00:29:40.897Z,1009.50
2018-07-20T00:29:50.896Z,1009.48
2018-07-20T00:30:00.895Z,1009.48
2018-07-20T00:30:10.906Z,1009.51
2018-07-20T00:30:20.918Z,1009.49
2018-07-20T00:30:30.892Z,1009.49
2018-07-20T00:30:40.892Z,1009.53
2018-07-20T00:30:50.893Z,1009.48
2018-07-20T00:31:00.892Z,1009.54
2018-07-20T00:31:10.891Z,1009.51
2018-07-20T00:31:20.895Z,1009.53
2018-07-20T00:31:30.891Z,1009.53
2018-07-20T00:31:40.889Z,1009.50
2018-07-20T00:31:50.888Z,1009.50
2018-07-20T00:32:00.889Z,1009.51
2018-07-20T00:32:10.888Z,1009.49
2018-07-20T00:32:20.892Z,1009.48
2018-07-20T00:32:30.909Z,1009.53
2018-07-20T00:32:40.886Z,1009.52
2018-07-20T00:32:50.887Z,1009.51
2018-07-20T00:33:00.889Z,1009.51
2018-07-20T00:33:10.883Z,1009.49
2018-07-20T00:33:20.884Z,1009.51
2018-07-20T00:33:30.887Z,1009.52
2018-07-20T00:33:40.882Z,1009.49
2018-07-20T00:33:50.883Z,1009.52
2018-07-20T00:34:00.884Z,1009.51
2018-07-20T00:34:10.884Z,1009.49
2018-07-20T00:34:20.889Z,1009.51
2018-07-20T00:34:30.880Z,1009.52
2018-07-20T00:34:40.887Z,1009.51
2018-07-20T00:34:50.884Z,1009.52
2018-07-20T00:35:00.881Z,1009.52
2018-07-20T00:35:10.886Z,1009.48
2018-07-20T00:35:20.888Z,1009.47
2018-07-20T00:35:30.883Z,1009.48
2018-07-20T00:35:40.881Z,1009.46
2018-07-20T00:35:50.878Z,1009.48
2018-07-20T00:36:00.879Z,1009.48
2018-07-20T00:36:10.883Z,1009.49
2018-07-20T00:36:20.882Z,1009.49
2018-07-20T00:36:30.876Z,1009.47
2018-07-20T00:36:40.876Z,1009.51
2018-07-20T00:36:50.873Z,1009.45
2018-07-20T00:37:00.873Z,1009.45
2018-07-20T00:37:10.870Z,1009.47
2018-07-20T00:37:20.874Z,1009.43
2018-07-20T00:37:30.871Z,1009.43
2018-07-20T00:37:40.874Z,1009.45
2018-07-20T00:37:50.868Z,1009.46
2018-07-20T00:38:00.864Z,1009.48
2018-07-20T00:38:10.865Z,1009.46
2018-07-20T00:38:20.859Z,1009.43
2018-07-20T00:38:30.865Z,1009.42
2018-07-20T00:38:40.860Z,1009.43
2018-07-20T00:38:50.864Z,1009.41
2018-07-20T00:39:00.859Z,1009.42
2018-07-20T00:39:10.859Z,1009.42
2018-07-20T00:39:20.860Z,1009.41
2018-07-20T00:39:30.855Z,1009.45
2018-07-20T00:39:40.860Z,1009.41
2018-07-20T00:39:50.852Z,1009.42
2018-07-20T00:40:00.858Z,1009.42
2018-07-20T00:40:10.864Z,1009.40
2018-07-20T00:40:20.851Z,1009.45
2018-07-20T00:40:30.847Z,1009.41
2018-07-20T00:40:40.852Z,1009.39
2018-07-20T00:40:50.846Z,1009.38
2018-07-20T00:41:00.848Z,1009.39
2018-07-20T00:41:10.854Z,1009.40
2018-07-20T00:41:20.850Z,1009.38
2018-07-20T00:41:30.850Z,1009.40
2018-07-20T00:41:40.848Z,1009.37
2018-07-20T00:41:50.863Z,1009.37
2018-07-20T00:42:00.851Z,1009.35
2018-07-20T00:42:10.851Z,1009.40
2018-07-20T00:42:20.844Z,1009.33
2018-07-20T00:42:30.848Z,1009.35
2018-07-20T00:42:40.846Z,1009.36
2018-07-20T00:42:50.846Z,1009.36
2018-07-20T00:43:00.846Z,1009.36
2018-07-20T00:43:10.845Z,1009.38
2018-07-20T00:43:20.844Z,1009.39
2018-07-20T00:43:30.849Z,1009.32
2018-07-20T00:43:40.851Z,1009.35
2018-07-20T00:43:50.846Z,1009.35
2018-07-20T00:44:00.848Z,1009.35
2018-07-20T00:44:10.848Z,1009.36
2018-07-20T00:44:20.849Z,1009.36
2018-07-20T00:44:30.845Z,1009.36
2018-07-20T00:44:40.849Z,1009.35
2018-07-20T00:44:50.841Z,1009.35
2018-07-20T00:45:00.862Z,1009.35
2018-07-20T00:45:10.841Z,1009.32
2018-07-20T00:45:20.844Z,1009.32
2018-07-20T00:45:30.844Z,1009.32
2018-07-20T00:45:40.842Z,1009.31
2018-07-20T00:45:50.842Z,1009.33
2018-07-20T00:46:00.840Z,1009.30
2018-07-20T00:46:10.842Z,1009.31
2018-07-20T00:46:20.837Z,1009.30
2018-07-20T00:46:30.835Z,1009.33
2018-07-20T00:46:40.836Z,1009.31
2018-07-20T00:46:50.837Z,1009.30
2018-07-20T00:47:00.830Z,1009.29
2018-07-20T00:47:10.840Z,1009.29
2018-07-20T00:47:20.830Z,1009.33
2018-07-20T00:47:30.827Z,1009.30
2018-07-20T00:47:40.827Z,1009.28
2018-07-20T00:47:50.825Z,1009.29
2018-07-20T00:48:00.831Z,1009.26
2018-07-20T00:48:10.820Z,1009.28
2018-07-20T00:48:20.825Z,1009.26
2018-07-20T00:48:30.821Z,1009.27
2018-07-20T00:48:40.819Z,1009.28
2018-07-20T00:48:50.819Z,1009.25
2018-07-20T00:49:00.819Z,1009.25
2018-07-20T00:49:10.819Z,1009.24
2018-07-20T00:49:20.820Z,1009.26
2018-07-20T00:49:30.812Z,1009.27
2018-07-20T00:49:40.818Z,1009.26
2018-07-20T00:49:50.818Z,1009.26
2018-07-20T00:50:00.822Z,1009.24
2018-07-20T00:50:10.817Z,1009.27
2018-07-20T00:50:20.814Z,1009.27
2018-07-20T00:50:30.812Z,1009.26
2018-07-20T00:50:40.815Z,1009.26
2018-07-20T00:50:50.818Z,1009.26
2018-07-20T00:51:00.809Z,1009.27
2018-07-20T00:51:10.810Z,1009.28
2018-07-20T00:51:20.810Z,1009.23
2018-07-20T00:51:30.814Z,1009.24
2018-07-20T00:51:40.807Z,1009.24
2018-07-20T00:51:50.811Z,1009.28
2018-07-20T00:52:00.809Z,1009.26
2018-07-20T00:52:10.807Z,1009.23
2018-07-20T00:52:20.803Z,1009.23
2018-07-20T00:52:30.804Z,1009.20
2018-07-20T00:52:40.807Z,1009.20
2018-07-20T00:52:50.807Z,1009.22
2018-07-20T00:53:00.804Z,1009.21
2018-07-20T00:53:10.798Z,1009.20
2018-07-20T00:53:20.800Z,1009.23
2018-07-20T00:53:30.802Z,1009.22
2018-07-20T00:53:40.798Z,1009.25
2018-07-20T00:53:50.798Z,1009.25
2018-07-20T00:54:00.799Z,1009.23
2018-07-20T00:54:10.796Z,1009.19
2018-07-20T00:54:20.795Z,1009.21
2018-07-20T00:54:30.797Z,1009.19
2018-07-20T00:54:40.795Z,1009.21
2018-07-20T00:54:50.790Z,1009.21
2018-07-20T00:55:00.790Z,1009.21
2018-07-20T00:55:10.789Z,1009.20
2018-07-20T00:55:20.789Z,1009.18
2018-07-20T00:55:30.793Z,1009.21
2018-07-20T00:55:40.790Z,1009.20
2018-07-20T00:55:50.787Z,1009.24
2018-07-20T00:56:00.794Z,1009.22
2018-07-20T00:56:10.789Z,1009.15
2018-07-20T00:56:20.786Z,1009.20
2018-07-20T00:56:30.786Z,1009.23
2018-07-20T00:56:40.784Z,1009.22
2018-07-20T00:56:50.783Z,1009.18
2018-07-20T00:57:00.784Z,1009.20
2018-07-20T00:57:10.782Z,1009.19
2018-07-20T00:57:20.786Z,1009.19
2018-07-20T00:57:30.781Z,1009.19
2018-07-20T00:57:40.784Z,1009.16
2018-07-20T00:57:50.801Z,1009.16
2018-07-20T00:58:00.775Z,1009.15
2018-07-20T00:58:10.775Z,1009.14
2018-07-20T00:58:20.779Z,1009.13
2018-07-20T00:58:30.778Z,1009.17
2018-07-20T00:58:40.778Z,1009.14
2018-07-20T00:58:50.780Z,1009.16
2018-07-20T00:59:00.772Z,1009.17
2018-07-20T00:59:10.770Z,1009.18
2018-07-20T00:59:20.769Z,1009.17
2018-07-20T00:59:30.768Z,1009.16
2018-07-20T00:59:40.767Z,1009.17
2018-07-20T00:59:50.765Z,1009.13
2018-07-20T01:00:00.762Z,1009.12
2018-07-20T01:00:10.760Z,1009.11
2018-07-20T01:00:20.757Z,1009.13
2018-07-20T01:00:30.756Z,1009.13
2018-07-20T01:00:40.758Z,1009.14
2018-07-20T01:00:50.754Z,1009.10
2018-07-20T01:01:00.764Z,1009.12
2018-07-20T01:01:10.752Z,1009.16
2018-07-20T01:01:20.748Z,1009.09
2018-07-20T01:01:30.751Z,1009.12
2018-07-20T01:01:40.753Z,1009.15
2018-07-20T01:01:50.750Z,1009.13
2018-07-20T01:02:00.749Z,1009.13
2018-07-20T01:02:10.749Z,1009.10
2018-07-20T01:02:20.745Z,1009.11
2018-07-20T01:02:30.747Z,1009.09
2018-07-20T01:02:40.752Z,1009.11
2018-07-20T01:02:50.748Z,1009.12
2018-07-20T01:03:00.741Z,1009.14
2018-07-20T01:03:10.743Z,1009.14
2018-07-20T01:03:20.743Z,1009.14
2018-07-20T01:03:30.745Z,1009.10
2018-07-20T01:03:40.740Z,1009.13
2018-07-20T01:03:50.741Z,1009.11
2018-07-20T01:04:00.741Z,1009.16
2018-07-20T01:04:10.737Z,1009.12
2018-07-20T01:04:20.741Z,1009.12
2018-07-20T01:04:30.738Z,1009.10
2018-07-20T01:04:40.734Z,1009.09
2018-07-20T01:04:50.737Z,1009.10
2018-07-20T01:05:00.735Z,1009.09
2018-07-20T01:05:10.733Z,1009.10
2018-07-20T01:05:20.731Z,1009.09
2018-07-20T01:05:30.792Z,1009.09
2018-07-20T01:05:40.731Z,1009.10
2018-07-20T01:05:50.727Z,1009.09
2018-07-20T01:06:00.725Z,1009.08
2018-07-20T01:06:10.727Z,1009.05
2018-07-20T01:06:20.725Z,1009.11
2018-07-20T01:06:30.723Z,1009.07
2018-07-20T01:06:40.723Z,1009.07
2018-07-20T01:06:50.805Z,1009.08
2018-07-20T01:07:00.721Z,1009.06
2018-07-20T01:07:10.720Z,1009.06
2018-07-20T01:07:20.722Z,1009.02
2018-07-20T01:07:30.722Z,1009.06
2018-07-20T01:07:40.735Z,1009.08
2018-07-20T01:07:50.717Z,1009.07
2018-07-20T01:08:00.715Z,1009.03
2018-07-20T01:08:10.714Z,1009.07
2018-07-20T01:08:20.715Z,1009.05
2018-07-20T01:08:30.720Z,1009.07
2018-07-20T01:08:40.719Z,1009.07
2018-07-20T01:08:50.713Z,1009.06
2018-07-20T01:09:00.716Z,1009.04
2018-07-20T01:09:10.717Z,1009.04
2018-07-20T01:09:20.710Z,1009.07
2018-07-20T01:09:30.712Z,1009.03
2018-07-20T01:09:40.709Z,1009.01
2018-07-20T01:09:50.706Z,1009.02
2018-07-20T01:10:00.714Z,1009.00
2018-07-20T01:10:10.714Z,1009.02
2018-07-20T01:10:20.710Z,1009.04
2018-07-20T01:10:30.714Z,1009.02
2018-07-20T01:10:40.714Z,1009.06
2018-07-20T01:10:50.712Z,1009.03
2018-07-20T01:11:00.707Z,1009.01
2018-07-20T01:11:10.710Z,1008.99
2018-07-20T01:11:20.706Z,1008.99
2018-07-20T01:11:30.711Z,1009.00
2018-07-20T01:11:40.766Z,1009.01
2018-07-20T01:11:50.710Z,1009.04
2018-07-20T01:12:00.706Z,1009.02
2018-07-20T01:12:10.705Z,1009.01
2018-07-20T01:12:20.704Z,1009.00
2018-07-20T01:12:30.709Z,1008.98
2018-07-20T01:12:40.703Z,1009.00
2018-07-20T01:12:50.703Z,1009.00
2018-07-20T01:13:00.707Z,1009.05
2018-07-20T01:13:10.703Z,1008.98
2018-07-20T01:13:20.709Z,1009.04
2018-07-20T01:13:30.703Z,1009.03
2018-07-20T01:13:40.703Z,1008.99
2018-07-20T01:13:50.702Z,1009.01
2018-07-20T01:14:00.701Z,1009.04
2018-07-20T01:14:10.698Z,1009.01
2018-07-20T01:14:20.697Z,1008.97
2018-07-20T01:14:30.697Z,1009.00
2018-07-20T01:14:40.706Z,1009.00
2018-07-20T01:14:50.698Z,1009.04
2018-07-20T01:15:00.698Z,1008.99
2018-07-20T01:15:10.695Z,1008.96
2018-07-20T01:15:20.740Z,1009.04
2018-07-20T01:15:30.695Z,1009.01
2018-07-20T01:15:40.700Z,1009.01
2018-07-20T01:15:50.692Z,1009.02
2018-07-20T01:16:00.687Z,1008.99
2018-07-20T01:16:10.687Z,1009.02
2018-07-20T01:16:20.685Z,1008.98
2018-07-20T01:16:30.686Z,1009.04
2018-07-20T01:16:40.690Z,1009.02
2018-07-20T01:16:50.684Z,1008.98
2018-07-20T01:17:00.679Z,1009.02
2018-07-20T01:17:10.680Z,1009.00
2018-07-20T01:17:20.677Z,1009.01
2018-07-20T01:17:30.681Z,1009.00
2018-07-20T01:17:40.678Z,1009.02
2018-07-20T01:17:50.674Z,1009.00
2018-07-20T01:18:00.671Z,1009.00
2018-07-20T01:18:10.674Z,1008.99
2018-07-20T01:18:20.673Z,1008.99
2018-07-20T01:18:30.671Z,1008.99
2018-07-20T01:18:40.673Z,1009.03
2018-07-20T01:18:50.671Z,1008.99
2018-07-20T01:19:00.671Z,1009.00
2018-07-20T01:19:10.667Z,1009.04
2018-07-20T01:19:20.666Z,1009.02
2018-07-20T01:19:30.668Z,1009.03
2018-07-20T01:19:40.669Z,1009.00
2018-07-20T01:19:50.668Z,1009.03
2018-07-20T01:20:00.662Z,1009.02
2018-07-20T01:20:10.664Z,1009.01
2018-07-20T01:20:20.659Z,1009.00
2018-07-20T01:20:30.660Z,1009.06
2018-07-20T01:20:40.658Z,1009.04
2018-07-20T01:20:50.658Z,1009.04
2018-07-20T01:21:00.661Z,1009.03
2018-07-20T01:21:10.661Z,1009.03
2018-07-20T01:21:20.655Z,1008.98
2018-07-20T01:21:30.652Z,1008.97
2018-07-20T01:21:40.651Z,1008.99
2018-07-20T01:21:50.651Z,1008.99
2018-07-20T01:22:00.646Z,1008.97
2018-07-20T01:22:10.649Z,1009.00
2018-07-20T01:22:20.648Z,1009.00
2018-07-20T01:22:30.647Z,1009.00
2018-07-20T01:22:40.653Z,1008.99
2018-07-20T01:22:50.644Z,1008.97
2018-07-20T01:23:00.638Z,1009.00
2018-07-20T01:23:10.646Z,1008.98
2018-07-20T01:23:20.641Z,1009.02
2018-07-20T01:23:30.634Z,1008.98
2018-07-20T01:23:40.635Z,1009.01
2018-07-20T01:23:50.634Z,1008.99
2018-07-20T01:24:00.629Z,1008.97
2018-07-20T01:24:10.626Z,1008.99
2018-07-20T01:24:20.629Z,1008.99
2018-07-20T01:24:30.636Z,1008.98
2018-07-20T01:24:40.628Z,1009.00
2018-07-20T01:24:50.621Z,1009.00
2018-07-20T01:25:00.626Z,1009.00
2018-07-20T01:25:10.625Z,1008.97
2018-07-20T01:25:20.616Z,1008.96
2018-07-20T01:25:30.615Z,1008.98
2018-07-20T01:25:40.622Z,1008.98
2018-07-20T01:25:50.617Z,1008.96
2018-07-20T01:26:00.626Z,1008.98
2018-07-20T01:26:10.611Z,1008.94
2018-07-20T01:26:20.702Z,1008.97
2018-07-20T01:26:30.609Z,1008.98
2018-07-20T01:26:40.618Z,1009.01
2018-07-20T01:26:50.605Z,1008.98
2018-07-20T01:27:00.611Z,1008.95
2018-07-20T01:27:10.611Z,1008.97
2018-07-20T01:27:20.605Z,1008.98
2018-07-20T01:27:30.605Z,1008.99
2018-07-20T01:27:40.602Z,1008.94
2018-07-20T01:27:50.604Z,1008.94
2018-07-20T01:28:00.604Z,1008.95
2018-07-20T01:28:10.598Z,1008.93
2018-07-20T01:28:20.598Z,1008.98
2018-07-20T01:28:30.599Z,1008.96
2018-07-20T01:28:40.597Z,1008.96
2018-07-20T01:28:50.594Z,1008.95
2018-07-20T01:29:00.588Z,1008.99
2018-07-20T01:29:10.589Z,1008.97
2018-07-20T01:29:20.592Z,1008.98
2018-07-20T01:29:30.587Z,1008.97
2018-07-20T01:29:40.587Z,1008.95
2018-07-20T01:29:50.587Z,1008.96
2018-07-20T01:30:00.587Z,1008.96
2018-07-20T01:30:10.583Z,1008.96
2018-07-20T01:30:20.585Z,1008.96
2018-07-20T01:30:30.578Z,1008.95
2018-07-20T01:30:40.577Z,1008.96
2018-07-20T01:30:50.579Z,1008.96
2018-07-20T01:31:00.576Z,1008.98
2018-07-20T01:31:10.578Z,1008.97
2018-07-20T01:31:20.571Z,1008.98
2018-07-20T01:31:30.579Z,1008.97
2018-07-20T01:31:40.582Z,1008.95
2018-07-20T01:31:50.571Z,1008.99
2018-07-20T01:32:00.570Z,1008.97
2018-07-20T01:32:10.569Z,1008.98
2018-07-20T01:32:20.570Z,1008.99
2018-07-20T01:32:30.563Z,1008.99
2018-07-20T01:32:40.567Z,1008.99
2018-07-20T01:32:50.569Z,1008.99
2018-07-20T01:33:00.569Z,1008.99
2018-07-20T01:33:10.565Z,1008.96
2018-07-20T01:33:20.560Z,1008.95
2018-07-20T01:33:30.562Z,1008.97
2018-07-20T01:33:40.563Z,1008.97
2018-07-20T01:33:50.561Z,1008.99
2018-07-20T01:34:00.562Z,1008.95
2018-07-20T01:34:10.560Z,1009.00
2018-07-20T01:34:20.559Z,1008.95
2018-07-20T01:34:30.563Z,1008.96
2018-07-20T01:34:40.563Z,1008.96
2018-07-20T01:34:50.564Z,1008.97
2018-07-20T01:35:00.566Z,1009.00
2018-07-20T01:35:10.557Z,1008.96
2018-07-20T01:35:20.562Z,1009.00
2018-07-20T01:35:30.554Z,1008.98
2018-07-20T01:35:40.562Z,1008.99
2018-07-20T01:35:50.559Z,1008.95
2018-07-20T01:36:00.563Z,1008.99
2018-07-20T01:36:10.555Z,1008.96
2018-07-20T01:36:20.572Z,1009.01
2018-07-20T01:36:30.559Z,1009.01
2018-07-20T01:36:40.558Z,1008.99
2018-07-20T01:36:50.553Z,1009.01
2018-07-20T01:37:00.552Z,1009.00
2018-07-20T01:37:10.552Z,1008.99
2018-07-20T01:37:20.552Z,1008.97
2018-07-20T01:37:30.548Z,1008.98
2018-07-20T01:37:40.548Z,1008.98
2018-07-20T01:37:50.548Z,1008.99
2018-07-20T01:38:00.547Z,1008.96
2018-07-20T01:38:10.548Z,1008.99
2018-07-20T01:38:20.553Z,1008.98
2018-07-20T01:38:30.546Z,1009.01
2018-07-20T01:38:40.547Z,1008.98
2018-07-20T01:38:50.550Z,1008.98
2018-07-20T01:39:00.548Z,1009.00
2018-07-20T01:39:10.543Z,1009.01
2018-07-20T01:39:20.547Z,1008.99
2018-07-20T01:39:30.543Z,1009.03
2018-07-20T01:39:40.541Z,1008.99
2018-07-20T01:39:50.543Z,1009.02
2018-07-20T01:40:00.542Z,1009.01
2018-07-20T01:40:10.548Z,1009.01
2018-07-20T01:40:20.543Z,1009.03
2018-07-20T01:40:30.542Z,1009.02
2018-07-20T01:40:40.544Z,1009.01
2018-07-20T01:40:50.539Z,1008.98
2018-07-20T01:41:00.541Z,1008.97
2018-07-20T01:41:10.550Z,1009.00
2018-07-20T01:41:20.544Z,1009.01
2018-07-20T01:41:30.540Z,1009.02
2018-07-20T01:41:40.543Z,1009.00
2018-07-20T01:41:50.540Z,1009.03
2018-07-20T01:42:00.559Z,1009.03
2018-07-20T01:42:10.542Z,1009.01
2018-07-20T01:42:20.536Z,1008.99
2018-07-20T01:42:30.540Z,1009.02
2018-07-20T01:42:40.542Z,1008.98
2018-07-20T01:42:50.536Z,1008.99
2018-07-20T01:43:00.539Z,1008.99
2018-07-20T01:43:10.540Z,1008.98
2018-07-20T01:43:20.534Z,1008.98
2018-07-20T01:43:30.536Z,1009.01
2018-07-20T01:43:40.535Z,1008.98
2018-07-20T01:43:50.536Z,1008.97
2018-07-20T01:44:00.541Z,1008.96
2018-07-20T01:44:10.529Z,1009.03
2018-07-20T01:44:20.533Z,1008.97
2018-07-20T01:44:30.534Z,1008.98
2018-07-20T01:44:40.787Z,1008.99
2018-07-20T01:44:50.530Z,1008.96
2018-07-20T01:45:00.576Z,1008.98
2018-07-20T01:45:10.526Z,1008.95
2018-07-20T01:45:20.530Z,1009.01
2018-07-20T01:45:30.524Z,1008.95
2018-07-20T01:45:40.525Z,1008.95
2018-07-20T01:45:50.527Z,1008.98
2018-07-20T01:46:00.524Z,1008.95
2018-07-20T01:46:10.523Z,1008.98
2018-07-20T01:46:20.537Z,1008.96
2018-07-20T01:46:30.518Z,1008.95
2018-07-20T01:46:40.519Z,1008.96
2018-07-20T01:46:50.515Z,1008.98
2018-07-20T01:47:00.514Z,1008.96
2018-07-20T01:47:10.515Z,1008.97
2018-07-20T01:47:20.516Z,1008.99
2018-07-20T01:47:30.510Z,1008.94
2018-07-20T01:47:40.509Z,1008.98
2018-07-20T01:47:50.511Z,1008.96
2018-07-20T01:48:00.503Z,1009.00
2018-07-20T01:48:10.504Z,1008.96
2018-07-20T01:48:20.513Z,1008.98
2018-07-20T01:48:30.504Z,1009.01
2018-07-20T01:48:40.503Z,1008.95
2018-07-20T01:48:50.498Z,1008.94
2018-07-20T01:49:00.500Z,1008.95
2018-07-20T01:49:10.500Z,1008.94
2018-07-20T01:49:20.497Z,1008.97
2018-07-20T01:49:30.497Z,1008.96
2018-07-20T01:49:40.495Z,1008.96
2018-07-20T01:49:50.494Z,1008.97
2018-07-20T01:50:00.497Z,1008.95
2018-07-20T01:50:10.498Z,1008.94
2018-07-20T01:50:20.488Z,1008.97
2018-07-20T01:50:30.488Z,1008.95
2018-07-20T01:50:40.508Z,1008.94
2018-07-20T01:50:50.485Z,1008.96
2018-07-20T01:51:00.485Z,1008.95
2018-07-20T01:51:10.481Z,1008.97
2018-07-20T01:51:20.480Z,1008.94
2018-07-20T01:51:30.479Z,1008.94
2018-07-20T01:51:40.491Z,1008.97
2018-07-20T01:51:50.476Z,1008.96
2018-07-20T01:52:00.475Z,1008.97
2018-07-20T01:52:10.474Z,1008.94
2018-07-20T01:52:20.468Z,1008.98
2018-07-20T01:52:30.472Z,1008.94
2018-07-20T01:52:40.469Z,1008.95
2018-07-20T01:52:50.469Z,1008.97
2018-07-20T01:53:00.467Z,1008.93
2018-07-20T01:53:10.465Z,1008.91
2018-07-20T01:53:20.462Z,1008.92
2018-07-20T01:53:30.464Z,1008.94
2018-07-20T01:53:40.462Z,1008.96
2018-07-20T01:53:50.462Z,1008.93
2018-07-20T01:54:00.463Z,1008.98
2018-07-20T01:54:10.462Z,1008.96
2018-07-20T01:54:20.460Z,1008.95
2018-07-20T01:54:30.457Z,1008.95
2018-07-20T01:54:40.458Z,1008.93
2018-07-20T01:54:50.464Z,1008.96
2018-07-20T01:55:00.452Z,1008.97
2018-07-20T01:55:10.456Z,1008.96
2018-07-20T01:55:20.478Z,1008.98
2018-07-20T01:55:30.454Z,1008.98
2018-07-20T01:55:40.445Z,1008.98
2018-07-20T01:55:50.453Z,1008.97
2018-07-20T01:56:00.455Z,1008.99
2018-07-20T01:56:10.447Z,1008.99
2018-07-20T01:56:20.445Z,1009.00
2018-07-20T01:56:30.449Z,1008.98
2018-07-20T01:56:40.443Z,1008.96
2018-07-20T01:56:50.447Z,1008.93
2018-07-20T01:57:00.444Z,1008.97
2018-07-20T01:57:10.443Z,1008.96
2018-07-20T01:57:20.445Z,1008.94
2018-07-20T01:57:30.443Z,1008.98
2018-07-20T01:57:40.452Z,1008.96
2018-07-20T01:57:50.448Z,1008.94
2018-07-20T01:58:00.444Z,1008.97
2018-07-20T01:58:10.445Z,1008.95
2018-07-20T01:58:20.444Z,1008.96
2018-07-20T01:58:30.451Z,1008.96
2018-07-20T01:58:40.447Z,1008.92
2018-07-20T01:58:50.445Z,1008.95
2018-07-20T01:59:00.441Z,1008.96
2018-07-20T01:59:10.453Z,1008.96
2018-07-20T01:59:20.451Z,1008.93
2018-07-20T01:59:30.443Z,1008.94
2018-07-20T01:59:40.446Z,1008.93
2018-07-20T01:59:50.444Z,1008.91
2018-07-20T02:00:00.443Z,1008.93
2018-07-20T02:00:10.442Z,1008.92
2018-07-20T02:00:20.439Z,1008.93
2018-07-20T02:00:30.440Z,1008.92
2018-07-20T02:00:40.442Z,1008.93
2018-07-20T02:00:50.457Z,1008.95